sensor_id;sensor_type;location;lat;lon;timestamp;P1;durP1;ratioP1;P2;durP2;ratioP2
14306;SDS011;7237;49.500;11.400;2022-09-29T00:01:49;11.63;;;3.67;;
14306;SDS011;7237;49.500;11.400;2022-09-29T00:04:16;3.23;;;2.93;;
14306;SDS011;7237;49.500;11.400;2022-09-29T00:06:44;40.60;;;4.73;;
14306;SDS011;7237;49.500;11.400;2022-09-29T00:09:12;24.30;;;5.27;;
14306;SDS011;7237;49.500;11.400;2022-09-29T00:11:39;4.03;;;3.23;;
14306;SDS011;7237;49.500;11.400;2022-09-29T00:14:06;5.33;;;3.40;;
14306;SDS011;7237;49.500;11.400;2022-09-29T00:16:33;6.47;;;3.60;;
14306;SDS011;7237;49.500;11.400;2022-09-29T00:19:00;7.63;;;3.60;;
14306;SDS011;7237;49.500;11.400;2022-09-29T00:21:28;4.93;;;3.50;;
14306;SDS011;7237;49.500;11.400;2022-09-29T00:23:55;4.03;;;3.63;;
14306;SDS011;7237;49.500;11.400;2022-09-29T00:26:24;3.37;;;3.10;;
14306;SDS011;7237;49.500;11.400;2022-09-29T00:28:52;3.83;;;3.53;;
14306;SDS011;7237;49.500;11.400;2022-09-29T00:31:20;6.63;;;3.83;;
14306;SDS011;7237;49.500;11.400;2022-09-29T00:33:48;5.27;;;3.57;;
14306;SDS011;7237;49.500;11.400;2022-09-29T00:36:15;4.77;;;3.67;;
14306;SDS011;7237;49.500;11.400;2022-09-29T00:38:43;23.60;;;4.13;;
14306;SDS011;7237;49.500;11.400;2022-09-29T00:41:12;8.27;;;3.80;;
14306;SDS011;7237;49.500;11.400;2022-09-29T00:43:48;19.40;;;4.83;;
14306;SDS011;7237;49.500;11.400;2022-09-29T00:46:15;3.97;;;3.57;;
14306;SDS011;7237;49.500;11.400;2022-09-29T00:48:43;4.33;;;3.83;;
14306;SDS011;7237;49.500;11.400;2022-09-29T00:51:10;6.47;;;4.10;;
14306;SDS011;7237;49.500;11.400;2022-09-29T00:53:38;5.63;;;3.87;;
14306;SDS011;7237;49.500;11.400;2022-09-29T00:56:06;6.00;;;3.50;;
14306;SDS011;7237;49.500;11.400;2022-09-29T00:58:36;4.27;;;3.27;;
14306;SDS011;7237;49.500;11.400;2022-09-29T01:01:07;5.50;;;3.20;;
14306;SDS011;7237;49.500;11.400;2022-09-29T01:03:36;6.53;;;3.90;;
14306;SDS011;7237;49.500;11.400;2022-09-29T01:06:05;6.53;;;3.73;;
14306;SDS011;7237;49.500;11.400;2022-09-29T01:08:38;5.10;;;3.83;;
14306;SDS011;7237;49.500;11.400;2022-09-29T01:11:06;5.03;;;3.67;;
14306;SDS011;7237;49.500;11.400;2022-09-29T01:13:34;3.97;;;3.57;;
14306;SDS011;7237;49.500;11.400;2022-09-29T01:16:02;6.07;;;3.73;;
14306;SDS011;7237;49.500;11.400;2022-09-29T01:18:30;16.13;;;3.67;;
14306;SDS011;7237;49.500;11.400;2022-09-29T01:21:00;25.63;;;5.13;;
14306;SDS011;7237;49.500;11.400;2022-09-29T01:23:49;26.80;;;5.83;;
14306;SDS011;7237;49.500;11.400;2022-09-29T01:32:04;34.20;;;5.03;;
14306;SDS011;7237;49.500;11.400;2022-09-29T01:34:36;18.97;;;5.10;;
14306;SDS011;7237;49.500;11.400;2022-09-29T01:37:09;9.33;;;4.63;;
14306;SDS011;7237;49.500;11.400;2022-09-29T01:39:39;8.90;;;4.30;;
14306;SDS011;7237;49.500;11.400;2022-09-29T01:42:08;6.23;;;4.17;;
14306;SDS011;7237;49.500;11.400;2022-09-29T01:44:39;6.50;;;4.33;;
14306;SDS011;7237;49.500;11.400;2022-09-29T01:47:11;6.60;;;3.90;;
14306;SDS011;7237;49.500;11.400;2022-09-29T01:49:40;5.37;;;4.03;;
14306;SDS011;7237;49.500;11.400;2022-09-29T01:52:09;8.87;;;3.80;;
14306;SDS011;7237;49.500;11.400;2022-09-29T01:54:40;5.80;;;4.47;;
14306;SDS011;7237;49.500;11.400;2022-09-29T01:57:09;6.30;;;4.00;;
14306;SDS011;7237;49.500;11.400;2022-09-29T01:59:40;4.60;;;3.93;;
14306;SDS011;7237;49.500;11.400;2022-09-29T02:02:11;9.67;;;4.20;;
14306;SDS011;7237;49.500;11.400;2022-09-29T02:04:41;8.77;;;4.23;;
14306;SDS011;7237;49.500;11.400;2022-09-29T02:07:11;5.57;;;3.47;;
14306;SDS011;7237;49.500;11.400;2022-09-29T02:09:41;5.70;;;3.70;;
14306;SDS011;7237;49.500;11.400;2022-09-29T02:12:11;4.47;;;4.07;;
14306;SDS011;7237;49.500;11.400;2022-09-29T02:14:40;12.60;;;4.10;;
14306;SDS011;7237;49.500;11.400;2022-09-29T02:17:10;7.10;;;3.67;;
14306;SDS011;7237;49.500;11.400;2022-09-29T02:19:43;7.67;;;4.33;;
14306;SDS011;7237;49.500;11.400;2022-09-29T02:22:11;6.40;;;4.30;;
14306;SDS011;7237;49.500;11.400;2022-09-29T02:24:38;5.63;;;4.33;;
14306;SDS011;7237;49.500;11.400;2022-09-29T02:27:06;6.30;;;4.47;;
14306;SDS011;7237;49.500;11.400;2022-09-29T02:29:34;5.67;;;4.47;;
14306;SDS011;7237;49.500;11.400;2022-09-29T02:32:01;7.20;;;4.70;;
14306;SDS011;7237;49.500;11.400;2022-09-29T02:34:30;8.00;;;4.70;;
14306;SDS011;7237;49.500;11.400;2022-09-29T02:36:59;4.60;;;4.20;;
14306;SDS011;7237;49.500;11.400;2022-09-29T02:39:31;6.60;;;4.33;;
14306;SDS011;7237;49.500;11.400;2022-09-29T02:42:05;5.30;;;3.93;;
14306;SDS011;7237;49.500;11.400;2022-09-29T02:44:40;5.83;;;3.73;;
14306;SDS011;7237;49.500;11.400;2022-09-29T02:47:15;8.30;;;4.20;;
14306;SDS011;7237;49.500;11.400;2022-09-29T02:49:51;6.20;;;3.90;;
14306;SDS011;7237;49.500;11.400;2022-09-29T02:52:22;5.17;;;3.80;;
14306;SDS011;7237;49.500;11.400;2022-09-29T02:54:57;8.63;;;4.23;;
14306;SDS011;7237;49.500;11.400;2022-09-29T02:57:27;4.03;;;3.47;;
14306;SDS011;7237;49.500;11.400;2022-09-29T02:59:59;5.23;;;3.60;;
14306;SDS011;7237;49.500;11.400;2022-09-29T03:02:31;8.43;;;3.80;;
14306;SDS011;7237;49.500;11.400;2022-09-29T03:05:00;8.80;;;4.07;;
14306;SDS011;7237;49.500;11.400;2022-09-29T03:07:27;11.80;;;3.87;;
14306;SDS011;7237;49.500;11.400;2022-09-29T03:09:54;6.47;;;3.70;;
14306;SDS011;7237;49.500;11.400;2022-09-29T03:12:21;5.77;;;3.60;;
14306;SDS011;7237;49.500;11.400;2022-09-29T03:14:48;5.67;;;3.30;;
14306;SDS011;7237;49.500;11.400;2022-09-29T03:17:15;9.80;;;3.63;;
14306;SDS011;7237;49.500;11.400;2022-09-29T03:19:43;5.87;;;3.97;;
14306;SDS011;7237;49.500;11.400;2022-09-29T03:22:11;4.10;;;3.80;;
14306;SDS011;7237;49.500;11.400;2022-09-29T03:24:38;6.03;;;4.30;;
14306;SDS011;7237;49.500;11.400;2022-09-29T03:27:05;5.57;;;4.03;;
14306;SDS011;7237;49.500;11.400;2022-09-29T03:29:33;6.73;;;3.87;;
14306;SDS011;7237;49.500;11.400;2022-09-29T03:32:01;4.57;;;4.17;;
14306;SDS011;7237;49.500;11.400;2022-09-29T03:34:28;6.73;;;3.90;;
14306;SDS011;7237;49.500;11.400;2022-09-29T03:36:55;4.43;;;3.80;;
14306;SDS011;7237;49.500;11.400;2022-09-29T03:39:24;3.83;;;3.33;;
14306;SDS011;7237;49.500;11.400;2022-09-29T03:41:51;4.90;;;3.17;;
14306;SDS011;7237;49.500;11.400;2022-09-29T03:44:18;8.20;;;3.20;;
14306;SDS011;7237;49.500;11.400;2022-09-29T03:46:45;4.60;;;3.33;;
14306;SDS011;7237;49.500;11.400;2022-09-29T03:49:12;5.63;;;3.47;;
14306;SDS011;7237;49.500;11.400;2022-09-29T03:51:40;4.20;;;3.80;;
14306;SDS011;7237;49.500;11.400;2022-09-29T03:54:07;5.13;;;3.80;;
14306;SDS011;7237;49.500;11.400;2022-09-29T03:56:36;4.83;;;3.23;;
14306;SDS011;7237;49.500;11.400;2022-09-29T03:59:04;4.40;;;3.10;;
14306;SDS011;7237;49.500;11.400;2022-09-29T04:01:33;4.40;;;3.30;;
14306;SDS011;7237;49.500;11.400;2022-09-29T04:04:02;5.83;;;3.53;;
14306;SDS011;7237;49.500;11.400;2022-09-29T04:06:29;7.53;;;4.40;;
14306;SDS011;7237;49.500;11.400;2022-09-29T04:08:56;7.47;;;4.00;;
14306;SDS011;7237;49.500;11.400;2022-09-29T04:11:23;4.40;;;3.40;;
14306;SDS011;7237;49.500;11.400;2022-09-29T04:13:52;3.90;;;3.50;;
14306;SDS011;7237;49.500;11.400;2022-09-29T04:16:19;8.80;;;3.20;;
14306;SDS011;7237;49.500;11.400;2022-09-29T04:18:46;4.03;;;3.63;;
14306;SDS011;7237;49.500;11.400;2022-09-29T04:21:13;4.10;;;3.60;;
14306;SDS011;7237;49.500;11.400;2022-09-29T04:23:40;4.17;;;3.40;;
14306;SDS011;7237;49.500;11.400;2022-09-29T04:26:08;7.03;;;3.83;;
14306;SDS011;7237;49.500;11.400;2022-09-29T04:28:35;4.63;;;3.53;;
14306;SDS011;7237;49.500;11.400;2022-09-29T04:31:04;4.67;;;3.60;;
14306;SDS011;7237;49.500;11.400;2022-09-29T04:33:31;4.60;;;3.47;;
14306;SDS011;7237;49.500;11.400;2022-09-29T04:35:58;5.97;;;4.20;;
14306;SDS011;7237;49.500;11.400;2022-09-29T04:38:25;6.37;;;4.00;;
14306;SDS011;7237;49.500;11.400;2022-09-29T04:40:52;5.77;;;3.70;;
14306;SDS011;7237;49.500;11.400;2022-09-29T04:43:19;5.97;;;3.93;;
14306;SDS011;7237;49.500;11.400;2022-09-29T04:45:46;5.63;;;4.00;;
14306;SDS011;7237;49.500;11.400;2022-09-29T04:48:15;7.23;;;3.87;;
14306;SDS011;7237;49.500;11.400;2022-09-29T04:50:42;8.53;;;3.93;;
14306;SDS011;7237;49.500;11.400;2022-09-29T04:53:10;10.67;;;4.20;;
14306;SDS011;7237;49.500;11.400;2022-09-29T04:55:37;7.03;;;4.03;;
14306;SDS011;7237;49.500;11.400;2022-09-29T04:58:04;7.73;;;4.07;;
14306;SDS011;7237;49.500;11.400;2022-09-29T05:00:31;7.43;;;4.20;;
14306;SDS011;7237;49.500;11.400;2022-09-29T05:02:59;6.47;;;4.03;;
14306;SDS011;7237;49.500;11.400;2022-09-29T05:05:27;4.37;;;3.87;;
14306;SDS011;7237;49.500;11.400;2022-09-29T05:07:54;5.83;;;4.40;;
14306;SDS011;7237;49.500;11.400;2022-09-29T05:10:23;7.87;;;4.70;;
14306;SDS011;7237;49.500;11.400;2022-09-29T05:12:50;10.33;;;4.57;;
14306;SDS011;7237;49.500;11.400;2022-09-29T05:15:18;8.93;;;5.40;;
14306;SDS011;7237;49.500;11.400;2022-09-29T05:17:45;9.03;;;4.97;;
14306;SDS011;7237;49.500;11.400;2022-09-29T05:20:12;7.03;;;4.43;;
14306;SDS011;7237;49.500;11.400;2022-09-29T05:22:41;8.30;;;4.63;;
14306;SDS011;7237;49.500;11.400;2022-09-29T05:25:08;5.23;;;4.67;;
14306;SDS011;7237;49.500;11.400;2022-09-29T05:27:36;4.70;;;4.23;;
14306;SDS011;7237;49.500;11.400;2022-09-29T05:30:03;6.80;;;4.70;;
14306;SDS011;7237;49.500;11.400;2022-09-29T05:32:30;8.30;;;4.73;;
14306;SDS011;7237;49.500;11.400;2022-09-29T05:34:58;8.07;;;4.87;;
14306;SDS011;7237;49.500;11.400;2022-09-29T05:37:25;7.40;;;4.50;;
14306;SDS011;7237;49.500;11.400;2022-09-29T05:39:53;7.83;;;4.93;;
14306;SDS011;7237;49.500;11.400;2022-09-29T05:42:20;5.87;;;4.70;;
14306;SDS011;7237;49.500;11.400;2022-09-29T05:44:49;14.60;;;5.83;;
14306;SDS011;7237;49.500;11.400;2022-09-29T05:47:16;8.63;;;5.20;;
14306;SDS011;7237;49.500;11.400;2022-09-29T05:49:44;11.73;;;5.47;;
14306;SDS011;7237;49.500;11.400;2022-09-29T05:52:11;12.10;;;5.40;;
14306;SDS011;7237;49.500;11.400;2022-09-29T05:54:38;15.33;;;6.43;;
14306;SDS011;7237;49.500;11.400;2022-09-29T05:57:06;10.90;;;6.00;;
14306;SDS011;7237;49.500;11.400;2022-09-29T05:59:33;12.63;;;5.60;;
14306;SDS011;7237;49.500;11.400;2022-09-29T06:02:00;10.20;;;5.53;;
14306;SDS011;7237;49.500;11.400;2022-09-29T06:04:27;12.73;;;5.43;;
14306;SDS011;7237;49.500;11.400;2022-09-29T06:06:54;10.03;;;5.73;;
14306;SDS011;7237;49.500;11.400;2022-09-29T06:09:22;7.53;;;6.00;;
14306;SDS011;7237;49.500;11.400;2022-09-29T06:11:49;7.50;;;6.00;;
14306;SDS011;7237;49.500;11.400;2022-09-29T06:14:17;15.10;;;7.07;;
14306;SDS011;7237;49.500;11.400;2022-09-29T06:16:44;14.67;;;7.17;;
14306;SDS011;7237;49.500;11.400;2022-09-29T06:19:12;13.07;;;8.07;;
14306;SDS011;7237;49.500;11.400;2022-09-29T06:21:39;19.80;;;8.80;;
14306;SDS011;7237;49.500;11.400;2022-09-29T06:24:06;19.33;;;8.30;;
14306;SDS011;7237;49.500;11.400;2022-09-29T06:26:33;23.70;;;9.17;;
14306;SDS011;7237;49.500;11.400;2022-09-29T06:29:01;18.57;;;8.43;;
14306;SDS011;7237;49.500;11.400;2022-09-29T06:31:29;37.40;;;9.60;;
14306;SDS011;7237;49.500;11.400;2022-09-29T06:33:57;12.37;;;8.17;;
14306;SDS011;7237;49.500;11.400;2022-09-29T06:36:27;138.17;;;11.67;;
14306;SDS011;7237;49.500;11.400;2022-09-29T06:39:13;11.70;;;7.67;;
14306;SDS011;7237;49.500;11.400;2022-09-29T06:41:40;28.00;;;9.13;;
14306;SDS011;7237;49.500;11.400;2022-09-29T06:44:11;12.07;;;7.70;;
14306;SDS011;7237;49.500;11.400;2022-09-29T06:46:39;12.93;;;7.57;;
14306;SDS011;7237;49.500;11.400;2022-09-29T06:49:06;12.67;;;7.33;;
14306;SDS011;7237;49.500;11.400;2022-09-29T06:51:34;8.27;;;7.00;;
14306;SDS011;7237;49.500;11.400;2022-09-29T06:54:01;8.90;;;6.90;;
14306;SDS011;7237;49.500;11.400;2022-09-29T06:56:28;9.23;;;6.33;;
14306;SDS011;7237;49.500;11.400;2022-09-29T06:58:56;9.33;;;6.07;;
14306;SDS011;7237;49.500;11.400;2022-09-29T07:01:23;7.73;;;5.77;;
14306;SDS011;7237;49.500;11.400;2022-09-29T07:03:51;8.97;;;5.80;;
14306;SDS011;7237;49.500;11.400;2022-09-29T07:06:19;10.73;;;6.10;;
14306;SDS011;7237;49.500;11.400;2022-09-29T07:08:46;10.43;;;6.00;;
14306;SDS011;7237;49.500;11.400;2022-09-29T07:11:13;9.30;;;5.30;;
14306;SDS011;7237;49.500;11.400;2022-09-29T07:13:40;7.30;;;5.30;;
14306;SDS011;7237;49.500;11.400;2022-09-29T07:16:08;5.20;;;4.70;;
14306;SDS011;7237;49.500;11.400;2022-09-29T07:18:35;5.77;;;5.27;;
14306;SDS011;7237;49.500;11.400;2022-09-29T07:21:04;6.00;;;5.50;;
14306;SDS011;7237;49.500;11.400;2022-09-29T07:23:34;7.23;;;5.77;;
14306;SDS011;7237;49.500;11.400;2022-09-29T07:26:01;6.63;;;5.53;;
14306;SDS011;7237;49.500;11.400;2022-09-29T07:28:28;5.80;;;5.23;;
14306;SDS011;7237;49.500;11.400;2022-09-29T07:30:59;5.70;;;5.20;;
14306;SDS011;7237;49.500;11.400;2022-09-29T07:33:26;6.53;;;5.17;;
14306;SDS011;7237;49.500;11.400;2022-09-29T07:35:53;7.30;;;4.70;;
14306;SDS011;7237;49.500;11.400;2022-09-29T07:38:23;6.90;;;4.77;;
14306;SDS011;7237;49.500;11.400;2022-09-29T07:40:50;5.10;;;4.33;;
14306;SDS011;7237;49.500;11.400;2022-09-29T07:43:17;4.53;;;4.23;;
14306;SDS011;7237;49.500;11.400;2022-09-29T07:45:47;5.43;;;4.63;;
14306;SDS011;7237;49.500;11.400;2022-09-29T07:48:14;5.07;;;4.37;;
14306;SDS011;7237;49.500;11.400;2022-09-29T07:50:42;4.73;;;4.27;;
14306;SDS011;7237;49.500;11.400;2022-09-29T07:53:09;4.83;;;4.43;;
14306;SDS011;7237;49.500;11.400;2022-09-29T07:55:38;4.30;;;3.90;;
14306;SDS011;7237;49.500;11.400;2022-09-29T07:58:05;4.40;;;4.10;;
14306;SDS011;7237;49.500;11.400;2022-09-29T08:00:32;4.03;;;3.73;;
14306;SDS011;7237;49.500;11.400;2022-09-29T08:03:00;4.40;;;4.00;;
14306;SDS011;7237;49.500;11.400;2022-09-29T08:05:27;3.80;;;3.23;;
14306;SDS011;7237;49.500;11.400;2022-09-29T08:07:57;4.47;;;3.47;;
14306;SDS011;7237;49.500;11.400;2022-09-29T08:10:25;4.10;;;2.90;;
14306;SDS011;7237;49.500;11.400;2022-09-29T08:12:53;3.57;;;2.97;;
14306;SDS011;7237;49.500;11.400;2022-09-29T08:15:21;4.00;;;3.00;;
14306;SDS011;7237;49.500;11.400;2022-09-29T08:17:50;3.63;;;3.00;;
14306;SDS011;7237;49.500;11.400;2022-09-29T08:20:17;2.87;;;2.67;;
14306;SDS011;7237;49.500;11.400;2022-09-29T08:22:44;3.93;;;2.90;;
14306;SDS011;7237;49.500;11.400;2022-09-29T08:25:12;3.30;;;3.00;;
14306;SDS011;7237;49.500;11.400;2022-09-29T08:27:39;4.83;;;3.23;;
14306;SDS011;7237;49.500;11.400;2022-09-29T08:30:09;5.03;;;3.30;;
14306;SDS011;7237;49.500;11.400;2022-09-29T08:32:36;5.43;;;2.90;;
14306;SDS011;7237;49.500;11.400;2022-09-29T08:35:04;3.27;;;2.97;;
14306;SDS011;7237;49.500;11.400;2022-09-29T08:37:32;3.83;;;3.30;;
14306;SDS011;7237;49.500;11.400;2022-09-29T08:39:59;3.10;;;2.60;;
14306;SDS011;7237;49.500;11.400;2022-09-29T08:42:27;3.13;;;2.50;;
14306;SDS011;7237;49.500;11.400;2022-09-29T08:44:56;2.50;;;2.30;;
14306;SDS011;7237;49.500;11.400;2022-09-29T08:47:26;3.97;;;2.87;;
14306;SDS011;7237;49.500;11.400;2022-09-29T08:49:55;2.93;;;2.30;;
14306;SDS011;7237;49.500;11.400;2022-09-29T08:52:23;2.60;;;2.40;;
14306;SDS011;7237;49.500;11.400;2022-09-29T08:54:52;2.87;;;2.40;;
14306;SDS011;7237;49.500;11.400;2022-09-29T08:57:21;2.73;;;2.47;;
14306;SDS011;7237;49.500;11.400;2022-09-29T08:59:50;4.97;;;2.50;;
14306;SDS011;7237;49.500;11.400;2022-09-29T09:02:36;3.63;;;2.20;;
14306;SDS011;7237;49.500;11.400;2022-09-29T09:05:11;2.60;;;2.37;;
14306;SDS011;7237;49.500;11.400;2022-09-29T09:07:43;3.10;;;2.27;;
14306;SDS011;7237;49.500;11.400;2022-09-29T09:10:16;2.23;;;2.03;;
14306;SDS011;7237;49.500;11.400;2022-09-29T09:13:00;3.73;;;1.93;;
14306;SDS011;7237;49.500;11.400;2022-09-29T09:15:40;2.80;;;2.20;;
14306;SDS011;7237;49.500;11.400;2022-09-29T09:18:15;3.53;;;2.23;;
14306;SDS011;7237;49.500;11.400;2022-09-29T09:20:47;2.23;;;1.83;;
14306;SDS011;7237;49.500;11.400;2022-09-29T09:23:19;2.20;;;2.00;;
14306;SDS011;7237;49.500;11.400;2022-09-29T09:25:48;5.10;;;2.23;;
14306;SDS011;7237;49.500;11.400;2022-09-29T09:28:15;2.93;;;1.80;;
14306;SDS011;7237;49.500;11.400;2022-09-29T09:30:44;3.23;;;1.80;;
14306;SDS011;7237;49.500;11.400;2022-09-29T09:33:18;5.80;;;2.13;;
14306;SDS011;7237;49.500;11.400;2022-09-29T09:35:47;3.13;;;2.13;;
14306;SDS011;7237;49.500;11.400;2022-09-29T09:38:16;2.57;;;1.90;;
14306;SDS011;7237;49.500;11.400;2022-09-29T09:40:45;4.23;;;2.10;;
14306;SDS011;7237;49.500;11.400;2022-09-29T09:43:15;5.93;;;2.17;;
14306;SDS011;7237;49.500;11.400;2022-09-29T09:45:45;3.60;;;2.07;;
14306;SDS011;7237;49.500;11.400;2022-09-29T09:48:14;3.20;;;1.80;;
14306;SDS011;7237;49.500;11.400;2022-09-29T09:50:46;3.20;;;2.13;;
14306;SDS011;7237;49.500;11.400;2022-09-29T09:53:15;2.20;;;2.00;;
14306;SDS011;7237;49.500;11.400;2022-09-29T09:55:45;3.53;;;2.03;;
14306;SDS011;7237;49.500;11.400;2022-09-29T09:58:21;3.30;;;2.20;;
14306;SDS011;7237;49.500;11.400;2022-09-29T10:00:51;4.87;;;2.20;;
14306;SDS011;7237;49.500;11.400;2022-09-29T10:03:21;2.20;;;1.87;;
14306;SDS011;7237;49.500;11.400;2022-09-29T10:05:49;2.60;;;2.07;;
14306;SDS011;7237;49.500;11.400;2022-09-29T10:08:19;2.93;;;2.30;;
14306;SDS011;7237;49.500;11.400;2022-09-29T10:10:48;2.57;;;2.27;;
14306;SDS011;7237;49.500;11.400;2022-09-29T10:13:15;3.80;;;2.23;;
14306;SDS011;7237;49.500;11.400;2022-09-29T10:15:44;4.20;;;2.20;;
14306;SDS011;7237;49.500;11.400;2022-09-29T10:18:14;2.93;;;1.90;;
14306;SDS011;7237;49.500;11.400;2022-09-29T10:20:42;2.43;;;2.10;;
14306;SDS011;7237;49.500;11.400;2022-09-29T10:23:23;3.00;;;2.23;;
14306;SDS011;7237;49.500;11.400;2022-09-29T10:25:52;3.93;;;2.03;;
14306;SDS011;7237;49.500;11.400;2022-09-29T10:28:20;2.83;;;1.97;;
14306;SDS011;7237;49.500;11.400;2022-09-29T10:30:47;3.10;;;1.93;;
14306;SDS011;7237;49.500;11.400;2022-09-29T10:33:16;3.23;;;2.23;;
14306;SDS011;7237;49.500;11.400;2022-09-29T10:35:44;2.57;;;2.20;;
14306;SDS011;7237;49.500;11.400;2022-09-29T10:38:15;2.60;;;2.40;;
14306;SDS011;7237;49.500;11.400;2022-09-29T10:40:54;3.13;;;2.20;;
14306;SDS011;7237;49.500;11.400;2022-09-29T10:43:23;3.83;;;2.30;;
14306;SDS011;7237;49.500;11.400;2022-09-29T10:45:51;9.67;;;2.40;;
14306;SDS011;7237;49.500;11.400;2022-09-29T10:48:22;2.20;;;2.00;;
14306;SDS011;7237;49.500;11.400;2022-09-29T10:50:50;2.80;;;1.80;;
14306;SDS011;7237;49.500;11.400;2022-09-29T10:53:23;2.87;;;1.57;;
14306;SDS011;7237;49.500;11.400;2022-09-29T10:55:53;1.73;;;1.43;;
14306;SDS011;7237;49.500;11.400;2022-09-29T10:58:24;2.60;;;1.63;;
14306;SDS011;7237;49.500;11.400;2022-09-29T11:01:01;2.53;;;1.60;;
14306;SDS011;7237;49.500;11.400;2022-09-29T11:03:31;3.30;;;1.50;;
14306;SDS011;7237;49.500;11.400;2022-09-29T11:06:00;3.60;;;1.60;;
14306;SDS011;7237;49.500;11.400;2022-09-29T11:08:28;4.40;;;1.90;;
14306;SDS011;7237;49.500;11.400;2022-09-29T11:11:07;3.53;;;1.93;;
14306;SDS011;7237;49.500;11.400;2022-09-29T11:31:24;3.25;;;1.88;;
14306;SDS011;7237;49.500;11.400;2022-09-29T11:33:57;5.23;;;2.30;;
14306;SDS011;7237;49.500;11.400;2022-09-29T11:36:29;3.80;;;2.42;;
14306;SDS011;7237;49.500;11.400;2022-09-29T11:39:04;2.47;;;2.00;;
14306;SDS011;7237;49.500;11.400;2022-09-29T11:41:44;2.87;;;2.27;;
14306;SDS011;7237;49.500;11.400;2022-09-29T11:44:18;2.60;;;2.00;;
14306;SDS011;7237;49.500;11.400;2022-09-29T11:46:52;2.63;;;2.43;;
14306;SDS011;7237;49.500;11.400;2022-09-29T11:49:30;2.77;;;2.47;;
14306;SDS011;7237;49.500;11.400;2022-09-29T11:52:02;3.10;;;2.60;;
14306;SDS011;7237;49.500;11.400;2022-09-29T11:54:46;4.53;;;2.40;;
14306;SDS011;7237;49.500;11.400;2022-09-29T11:57:16;4.60;;;2.50;;
14306;SDS011;7237;49.500;11.400;2022-09-29T11:59:58;3.13;;;2.80;;
14306;SDS011;7237;49.500;11.400;2022-09-29T12:02:36;2.90;;;2.47;;
14306;SDS011;7237;49.500;11.400;2022-09-29T12:05:11;5.80;;;2.93;;
14306;SDS011;7237;49.500;11.400;2022-09-29T12:07:41;2.60;;;2.40;;
14306;SDS011;7237;49.500;11.400;2022-09-29T12:10:21;3.27;;;2.50;;
14306;SDS011;7237;49.500;11.400;2022-09-29T12:12:52;3.30;;;2.17;;
14306;SDS011;7237;49.500;11.400;2022-09-29T12:15:25;5.73;;;2.30;;
14306;SDS011;7237;49.500;11.400;2022-09-29T12:17:55;6.30;;;2.13;;
14306;SDS011;7237;49.500;11.400;2022-09-29T12:20:26;4.73;;;1.93;;
14306;SDS011;7237;49.500;11.400;2022-09-29T12:22:54;3.27;;;1.63;;
14306;SDS011;7237;49.500;11.400;2022-09-29T12:25:25;2.53;;;1.57;;
14306;SDS011;7237;49.500;11.400;2022-09-29T12:27:54;1.60;;;1.50;;
14306;SDS011;7237;49.500;11.400;2022-09-29T12:30:23;4.33;;;1.50;;
14306;SDS011;7237;49.500;11.400;2022-09-29T12:32:55;1.50;;;1.00;;
14306;SDS011;7237;49.500;11.400;2022-09-29T12:35:25;1.10;;;1.00;;
14306;SDS011;7237;49.500;11.400;2022-09-29T12:37:55;1.67;;;1.10;;
14306;SDS011;7237;49.500;11.400;2022-09-29T12:40:24;1.43;;;0.90;;
14306;SDS011;7237;49.500;11.400;2022-09-29T12:43:01;1.30;;;0.90;;
14306;SDS011;7237;49.500;11.400;2022-09-29T12:45:32;1.23;;;1.00;;
14306;SDS011;7237;49.500;11.400;2022-09-29T12:48:07;2.93;;;0.90;;
14306;SDS011;7237;49.500;11.400;2022-09-29T12:50:41;0.70;;;0.70;;
14306;SDS011;7237;49.500;11.400;2022-09-29T12:53:11;0.87;;;0.80;;
14306;SDS011;7237;49.500;11.400;2022-09-29T12:55:42;0.80;;;0.80;;
14306;SDS011;7237;49.500;11.400;2022-09-29T12:58:13;1.93;;;1.13;;
14306;SDS011;7237;49.500;11.400;2022-09-29T13:00:42;1.37;;;0.70;;
14306;SDS011;7237;49.500;11.400;2022-09-29T13:03:25;3.60;;;1.13;;
14306;SDS011;7237;49.500;11.400;2022-09-29T13:06:03;1.73;;;0.87;;
14306;SDS011;7237;49.500;11.400;2022-09-29T13:11:21;1.93;;;1.00;;
14306;SDS011;7237;49.500;11.400;2022-09-29T13:14:02;1.07;;;0.73;;
14306;SDS011;7237;49.500;11.400;2022-09-29T13:16:36;2.57;;;0.80;;
14306;SDS011;7237;49.500;11.400;2022-09-29T13:21:56;1.80;;;0.90;;
14306;SDS011;7237;49.500;11.400;2022-09-29T13:24:33;1.00;;;0.80;;
14306;SDS011;7237;49.500;11.400;2022-09-29T13:27:08;1.48;;;0.90;;
14306;SDS011;7237;49.500;11.400;2022-09-29T13:29:39;1.30;;;0.93;;
14306;SDS011;7237;49.500;11.400;2022-09-29T13:32:09;5.97;;;1.00;;
14306;SDS011;7237;49.500;11.400;2022-09-29T13:34:37;1.65;;;0.95;;
14306;SDS011;7237;49.500;11.400;2022-09-29T13:37:07;1.60;;;1.40;;
14306;SDS011;7237;49.500;11.400;2022-09-29T13:39:38;3.60;;;1.60;;
14306;SDS011;7237;49.500;11.400;2022-09-29T13:47:34;2.00;;;1.13;;
14306;SDS011;7237;49.500;11.400;2022-09-29T13:52:44;1.40;;;1.30;;
14306;SDS011;7237;49.500;11.400;2022-09-29T13:58:19;2.33;;;1.23;;
14306;SDS011;7237;49.500;11.400;2022-09-29T14:00:47;1.90;;;1.20;;
14306;SDS011;7237;49.500;11.400;2022-09-29T14:03:24;1.20;;;1.10;;
14306;SDS011;7237;49.500;11.400;2022-09-29T14:05:53;1.83;;;1.23;;
14306;SDS011;7237;49.500;11.400;2022-09-29T14:08:27;1.00;;;0.90;;
14306;SDS011;7237;49.500;11.400;2022-09-29T14:11:01;1.10;;;1.00;;
14306;SDS011;7237;49.500;11.400;2022-09-29T14:13:30;3.30;;;1.30;;
14306;SDS011;7237;49.500;11.400;2022-09-29T14:16:09;1.60;;;1.47;;
14306;SDS011;7237;49.500;11.400;2022-09-29T14:18:39;3.77;;;1.70;;
14306;SDS011;7237;49.500;11.400;2022-09-29T14:21:08;3.37;;;2.00;;
14306;SDS011;7237;49.500;11.400;2022-09-29T14:23:50;2.53;;;2.00;;
14306;SDS011;7237;49.500;11.400;2022-09-29T14:29:04;3.47;;;1.53;;
14306;SDS011;7237;49.500;11.400;2022-09-29T14:31:39;2.43;;;1.60;;
14306;SDS011;7237;49.500;11.400;2022-09-29T14:34:07;1.40;;;1.30;;
14306;SDS011;7237;49.500;11.400;2022-09-29T14:36:40;2.13;;;1.20;;
14306;SDS011;7237;49.500;11.400;2022-09-29T14:39:12;1.17;;;1.03;;
14306;SDS011;7237;49.500;11.400;2022-09-29T14:41:40;1.60;;;1.00;;
14306;SDS011;7237;49.500;11.400;2022-09-29T14:44:08;2.17;;;1.30;;
14306;SDS011;7237;49.500;11.400;2022-09-29T14:46:43;6.43;;;1.43;;
14306;SDS011;7237;49.500;11.400;2022-09-29T14:49:44;2.90;;;1.27;;
14306;SDS011;7237;49.500;11.400;2022-09-29T14:52:34;1.37;;;1.20;;
14306;SDS011;7237;49.500;11.400;2022-09-29T14:55:08;2.50;;;1.20;;
14306;SDS011;7237;49.500;11.400;2022-09-29T14:57:46;2.00;;;1.40;;
14306;SDS011;7237;49.500;11.400;2022-09-29T15:00:17;5.03;;;1.40;;
14306;SDS011;7237;49.500;11.400;2022-09-29T15:02:46;2.90;;;1.30;;
14306;SDS011;7237;49.500;11.400;2022-09-29T15:05:22;1.40;;;1.30;;
14306;SDS011;7237;49.500;11.400;2022-09-29T15:07:50;1.80;;;1.50;;
14306;SDS011;7237;49.500;11.400;2022-09-29T15:10:23;2.00;;;1.47;;
14306;SDS011;7237;49.500;11.400;2022-09-29T15:12:51;1.60;;;1.50;;
14306;SDS011;7237;49.500;11.400;2022-09-29T15:15:31;5.70;;;1.70;;
14306;SDS011;7237;49.500;11.400;2022-09-29T15:18:01;3.67;;;2.10;;
14306;SDS011;7237;49.500;11.400;2022-09-29T15:20:31;1.53;;;1.43;;
14306;SDS011;7237;49.500;11.400;2022-09-29T15:25:44;2.70;;;1.70;;
14306;SDS011;7237;49.500;11.400;2022-09-29T15:28:13;5.53;;;1.70;;
14306;SDS011;7237;49.500;11.400;2022-09-29T15:30:41;2.13;;;1.80;;
14306;SDS011;7237;49.500;11.400;2022-09-29T15:33:14;4.13;;;1.97;;
14306;SDS011;7237;49.500;11.400;2022-09-29T15:35:42;4.70;;;1.90;;
14306;SDS011;7237;49.500;11.400;2022-09-29T15:41:04;1.90;;;1.73;;
14306;SDS011;7237;49.500;11.400;2022-09-29T15:43:41;2.77;;;1.90;;
14306;SDS011;7237;49.500;11.400;2022-09-29T15:46:12;2.63;;;2.40;;
14306;SDS011;7237;49.500;11.400;2022-09-29T15:48:41;4.43;;;2.30;;
14306;SDS011;7237;49.500;11.400;2022-09-29T15:51:08;2.50;;;2.23;;